sensor_id;sensor_type;location;lat;lon;timestamp;P1;durP1;ratioP1;P2;durP2;ratioP2
21987;SDS011;11158;53.404;-1.510;2023-09-18T00:00:01;38.65;;;32.35;;
21987;SDS011;11158;53.404;-1.510;2023-09-18T00:02:49;43.88;;;32.75;;
21987;SDS011;11158;53.404;-1.510;2023-09-18T00:05:33;38.20;;;29.23;;
21987;SDS011;11158;53.404;-1.510;2023-09-18T00:08:18;43.38;;;33.75;;
21987;SDS011;11158;53.404;-1.510;2023-09-18T00:11:05;42.13;;;33.70;;
21987;SDS011;11158;53.404;-1.510;2023-09-18T00:13:51;48.72;;;33.30;;
21987;SDS011;11158;53.404;-1.510;2023-09-18T00:16:35;39.88;;;32.95;;
21987;SDS011;11158;53.404;-1.510;2023-09-18T00:19:19;38.97;;;32.85;;
21987;SDS011;11158;53.404;-1.510;2023-09-18T00:22:03;43.65;;;31.98;;
21987;SDS011;11158;53.404;-1.510;2023-09-18T00:24:48;50.65;;;33.60;;
21987;SDS011;11158;53.404;-1.510;2023-09-18T00:27:32;39.85;;;31.25;;
21987;SDS011;11158;53.404;-1.510;2023-09-18T00:30:16;40.50;;;29.48;;
21987;SDS011;11158;53.404;-1.510;2023-09-18T00:33:01;44.60;;;32.28;;
21987;SDS011;11158;53.404;-1.510;2023-09-18T00:35:48;43.15;;;32.08;;
21987;SDS011;11158;53.404;-1.510;2023-09-18T00:38:34;48.38;;;33.88;;
21987;SDS011;11158;53.404;-1.510;2023-09-18T00:41:18;40.80;;;31.75;;
21987;SDS011;11158;53.404;-1.510;2023-09-18T00:44:02;35.63;;;30.35;;
21987;SDS011;11158;53.404;-1.510;2023-09-18T00:46:47;41.53;;;31.92;;
21987;SDS011;11158;53.404;-1.510;2023-09-18T00:49:32;36.67;;;30.42;;
21987;SDS011;11158;53.404;-1.510;2023-09-18T00:52:18;39.17;;;29.95;;
21987;SDS011;11158;53.404;-1.510;2023-09-18T00:55:04;41.92;;;31.10;;
21987;SDS011;11158;53.404;-1.510;2023-09-18T00:57:50;39.80;;;29.80;;
21987;SDS011;11158;53.404;-1.510;2023-09-18T01:00:35;45.33;;;32.97;;
21987;SDS011;11158;53.404;-1.510;2023-09-18T01:03:19;42.13;;;33.00;;
21987;SDS011;11158;53.404;-1.510;2023-09-18T01:06:05;42.10;;;32.10;;
21987;SDS011;11158;53.404;-1.510;2023-09-18T01:08:49;44.33;;;33.58;;
21987;SDS011;11158;53.404;-1.510;2023-09-18T01:11:46;46.08;;;33.47;;
21987;SDS011;11158;53.404;-1.510;2023-09-18T01:14:37;44.20;;;32.72;;
21987;SDS011;11158;53.404;-1.510;2023-09-18T01:17:25;49.28;;;35.38;;
21987;SDS011;11158;53.404;-1.510;2023-09-18T01:20:10;48.08;;;34.85;;
21987;SDS011;11158;53.404;-1.510;2023-09-18T01:22:55;45.00;;;34.55;;
21987;SDS011;11158;53.404;-1.510;2023-09-18T01:25:40;51.00;;;36.22;;
21987;SDS011;11158;53.404;-1.510;2023-09-18T01:28:24;54.80;;;36.90;;
21987;SDS011;11158;53.404;-1.510;2023-09-18T01:31:09;51.58;;;38.25;;
21987;SDS011;11158;53.404;-1.510;2023-09-18T01:33:53;49.85;;;36.83;;
21987;SDS011;11158;53.404;-1.510;2023-09-18T01:36:39;57.88;;;39.40;;
21987;SDS011;11158;53.404;-1.510;2023-09-18T01:39:24;57.90;;;39.53;;
21987;SDS011;11158;53.404;-1.510;2023-09-18T01:42:14;50.58;;;36.90;;
21987;SDS011;11158;53.404;-1.510;2023-09-18T01:44:59;56.00;;;38.67;;
21987;SDS011;11158;53.404;-1.510;2023-09-18T01:47:43;57.33;;;38.58;;
21987;SDS011;11158;53.404;-1.510;2023-09-18T01:50:28;52.40;;;35.40;;
21987;SDS011;11158;53.404;-1.510;2023-09-18T01:53:12;59.53;;;37.65;;
21987;SDS011;11158;53.404;-1.510;2023-09-18T01:55:56;54.50;;;37.35;;
21987;SDS011;11158;53.404;-1.510;2023-09-18T01:58:40;56.95;;;35.85;;
21987;SDS011;11158;53.404;-1.510;2023-09-18T02:01:24;52.13;;;36.10;;
21987;SDS011;11158;53.404;-1.510;2023-09-18T02:04:08;54.42;;;36.35;;
21987;SDS011;11158;53.404;-1.510;2023-09-18T02:06:53;50.00;;;34.97;;
21987;SDS011;11158;53.404;-1.510;2023-09-18T02:09:37;45.30;;;31.08;;
21987;SDS011;11158;53.404;-1.510;2023-09-18T02:12:21;45.03;;;31.98;;
21987;SDS011;11158;53.404;-1.510;2023-09-18T02:15:06;44.40;;;33.47;;
21987;SDS011;11158;53.404;-1.510;2023-09-18T02:17:50;44.33;;;32.03;;
21987;SDS011;11158;53.404;-1.510;2023-09-18T02:20:42;40.35;;;30.27;;
21987;SDS011;11158;53.404;-1.510;2023-09-18T02:23:28;50.78;;;33.90;;
21987;SDS011;11158;53.404;-1.510;2023-09-18T02:26:12;47.78;;;32.42;;
21987;SDS011;11158;53.404;-1.510;2023-09-18T02:28:58;45.45;;;33.70;;
21987;SDS011;11158;53.404;-1.510;2023-09-18T02:31:43;45.08;;;30.67;;
21987;SDS011;11158;53.404;-1.510;2023-09-18T02:34:27;45.65;;;31.27;;
21987;SDS011;11158;53.404;-1.510;2023-09-18T02:37:11;45.63;;;31.35;;
21987;SDS011;11158;53.404;-1.510;2023-09-18T02:39:55;42.80;;;30.95;;
21987;SDS011;11158;53.404;-1.510;2023-09-18T02:42:39;49.80;;;32.78;;
21987;SDS011;11158;53.404;-1.510;2023-09-18T02:45:23;50.40;;;31.85;;
21987;SDS011;11158;53.404;-1.510;2023-09-18T02:48:07;45.60;;;32.80;;
21987;SDS011;11158;53.404;-1.510;2023-09-18T02:50:51;46.05;;;33.60;;
21987;SDS011;11158;53.404;-1.510;2023-09-18T02:53:35;52.67;;;34.80;;
21987;SDS011;11158;53.404;-1.510;2023-09-18T02:56:20;49.63;;;33.45;;
21987;SDS011;11158;53.404;-1.510;2023-09-18T02:59:03;53.85;;;35.42;;
21987;SDS011;11158;53.404;-1.510;2023-09-18T03:01:48;58.83;;;37.72;;
21987;SDS011;11158;53.404;-1.510;2023-09-18T03:04:32;55.17;;;37.55;;
21987;SDS011;11158;53.404;-1.510;2023-09-18T03:07:16;55.97;;;36.78;;
21987;SDS011;11158;53.404;-1.510;2023-09-18T03:10:01;63.58;;;38.60;;
21987;SDS011;11158;53.404;-1.510;2023-09-18T03:12:47;56.45;;;35.65;;
21987;SDS011;11158;53.404;-1.510;2023-09-18T03:15:32;52.83;;;36.58;;
21987;SDS011;11158;53.404;-1.510;2023-09-18T03:18:16;54.50;;;35.53;;
21987;SDS011;11158;53.404;-1.510;2023-09-18T03:21:00;51.47;;;35.20;;
21987;SDS011;11158;53.404;-1.510;2023-09-18T03:23:44;58.50;;;37.58;;
21987;SDS011;11158;53.404;-1.510;2023-09-18T03:26:28;62.53;;;38.38;;
21987;SDS011;11158;53.404;-1.510;2023-09-18T03:29:12;52.38;;;34.50;;
21987;SDS011;11158;53.404;-1.510;2023-09-18T03:31:56;48.28;;;33.58;;
21987;SDS011;11158;53.404;-1.510;2023-09-18T03:34:42;46.83;;;32.50;;
21987;SDS011;11158;53.404;-1.510;2023-09-18T03:37:26;48.90;;;35.20;;
21987;SDS011;11158;53.404;-1.510;2023-09-18T03:40:11;52.22;;;34.10;;
21987;SDS011;11158;53.404;-1.510;2023-09-18T03:42:55;52.92;;;33.95;;
21987;SDS011;11158;53.404;-1.510;2023-09-18T03:45:39;56.92;;;34.90;;
21987;SDS011;11158;53.404;-1.510;2023-09-18T03:48:27;57.92;;;35.70;;
21987;SDS011;11158;53.404;-1.510;2023-09-18T03:51:10;53.70;;;35.33;;
21987;SDS011;11158;53.404;-1.510;2023-09-18T03:53:59;46.25;;;31.75;;
21987;SDS011;11158;53.404;-1.510;2023-09-18T03:56:43;47.13;;;31.42;;
21987;SDS011;11158;53.404;-1.510;2023-09-18T03:59:27;45.53;;;31.58;;
21987;SDS011;11158;53.404;-1.510;2023-09-18T04:02:11;51.05;;;33.80;;
21987;SDS011;11158;53.404;-1.510;2023-09-18T04:04:55;45.83;;;31.27;;
21987;SDS011;11158;53.404;-1.510;2023-09-18T04:07:39;45.15;;;30.20;;
21987;SDS011;11158;53.404;-1.510;2023-09-18T04:10:23;49.88;;;33.25;;
21987;SDS011;11158;53.404;-1.510;2023-09-18T04:13:07;48.42;;;32.50;;
21987;SDS011;11158;53.404;-1.510;2023-09-18T04:15:52;43.42;;;28.98;;
21987;SDS011;11158;53.404;-1.510;2023-09-18T04:18:40;44.58;;;31.00;;
21987;SDS011;11158;53.404;-1.510;2023-09-18T04:21:24;47.28;;;33.35;;
21987;SDS011;11158;53.404;-1.510;2023-09-18T04:24:09;50.50;;;33.22;;
21987;SDS011;11158;53.404;-1.510;2023-09-18T04:26:53;55.13;;;34.47;;
21987;SDS011;11158;53.404;-1.510;2023-09-18T04:29:37;50.65;;;33.47;;
21987;SDS011;11158;53.404;-1.510;2023-09-18T04:32:21;49.17;;;32.65;;
21987;SDS011;11158;53.404;-1.510;2023-09-18T04:35:06;49.80;;;32.42;;
21987;SDS011;11158;53.404;-1.510;2023-09-18T04:37:55;55.15;;;33.33;;
21987;SDS011;11158;53.404;-1.510;2023-09-18T04:40:40;51.03;;;32.40;;
21987;SDS011;11158;53.404;-1.510;2023-09-18T04:43:25;49.42;;;32.42;;
21987;SDS011;11158;53.404;-1.510;2023-09-18T04:46:09;46.47;;;30.73;;
21987;SDS011;11158;53.404;-1.510;2023-09-18T04:48:53;48.65;;;31.65;;
21987;SDS011;11158;53.404;-1.510;2023-09-18T04:51:38;40.92;;;29.63;;
21987;SDS011;11158;53.404;-1.510;2023-09-18T04:54:23;47.15;;;30.15;;
21987;SDS011;11158;53.404;-1.510;2023-09-18T04:57:07;41.90;;;27.90;;
21987;SDS011;11158;53.404;-1.510;2023-09-18T04:59:51;33.00;;;24.00;;
21987;SDS011;11158;53.404;-1.510;2023-09-18T05:02:36;33.40;;;22.80;;
21987;SDS011;11158;53.404;-1.510;2023-09-18T05:05:20;34.53;;;24.38;;
21987;SDS011;11158;53.404;-1.510;2023-09-18T05:08:05;29.15;;;21.02;;
21987;SDS011;11158;53.404;-1.510;2023-09-18T05:10:53;26.00;;;19.27;;
21987;SDS011;11158;53.404;-1.510;2023-09-18T05:13:38;30.65;;;20.83;;
21987;SDS011;11158;53.404;-1.510;2023-09-18T05:16:22;25.30;;;18.35;;
21987;SDS011;11158;53.404;-1.510;2023-09-18T05:19:06;26.42;;;18.17;;
21987;SDS011;11158;53.404;-1.510;2023-09-18T05:21:50;21.73;;;17.05;;
21987;SDS011;11158;53.404;-1.510;2023-09-18T05:24:34;21.85;;;16.58;;
21987;SDS011;11158;53.404;-1.510;2023-09-18T05:27:19;25.38;;;16.20;;
21987;SDS011;11158;53.404;-1.510;2023-09-18T05:30:03;26.50;;;18.00;;
21987;SDS011;11158;53.404;-1.510;2023-09-18T05:32:49;24.67;;;17.73;;
21987;SDS011;11158;53.404;-1.510;2023-09-18T05:35:33;21.80;;;16.98;;
21987;SDS011;11158;53.404;-1.510;2023-09-18T05:38:23;21.55;;;16.55;;
21987;SDS011;11158;53.404;-1.510;2023-09-18T05:41:08;27.98;;;19.67;;
21987;SDS011;11158;53.404;-1.510;2023-09-18T05:43:53;26.20;;;19.40;;
21987;SDS011;11158;53.404;-1.510;2023-09-18T05:46:37;26.30;;;18.98;;
21987;SDS011;11158;53.404;-1.510;2023-09-18T05:49:22;22.33;;;16.65;;
21987;SDS011;11158;53.404;-1.510;2023-09-18T05:52:06;27.50;;;17.63;;
21987;SDS011;11158;53.404;-1.510;2023-09-18T05:54:50;21.90;;;16.20;;
21987;SDS011;11158;53.404;-1.510;2023-09-18T05:57:34;21.15;;;15.30;;
21987;SDS011;11158;53.404;-1.510;2023-09-18T06:00:19;22.67;;;15.75;;
21987;SDS011;11158;53.404;-1.510;2023-09-18T06:03:03;20.08;;;14.98;;
21987;SDS011;11158;53.404;-1.510;2023-09-18T06:05:49;20.33;;;14.82;;
21987;SDS011;11158;53.404;-1.510;2023-09-18T06:08:33;16.77;;;12.07;;
21987;SDS011;11158;53.404;-1.510;2023-09-18T06:11:18;17.35;;;12.65;;
21987;SDS011;11158;53.404;-1.510;2023-09-18T06:14:02;15.02;;;11.70;;
21987;SDS011;11158;53.404;-1.510;2023-09-18T06:16:46;12.63;;;10.65;;
21987;SDS011;11158;53.404;-1.510;2023-09-18T06:19:30;15.10;;;9.55;;
21987;SDS011;11158;53.404;-1.510;2023-09-18T06:22:15;12.23;;;9.35;;
21987;SDS011;11158;53.404;-1.510;2023-09-18T06:24:59;10.40;;;6.88;;
21987;SDS011;11158;53.404;-1.510;2023-09-18T06:27:43;9.75;;;7.30;;
21987;SDS011;11158;53.404;-1.510;2023-09-18T06:30:27;9.80;;;7.07;;
21987;SDS011;11158;53.404;-1.510;2023-09-18T06:33:14;7.45;;;5.65;;
21987;SDS011;11158;53.404;-1.510;2023-09-18T06:35:59;10.88;;;7.07;;
21987;SDS011;11158;53.404;-1.510;2023-09-18T06:38:44;11.05;;;7.97;;
21987;SDS011;11158;53.404;-1.510;2023-09-18T06:41:28;9.52;;;6.93;;
21987;SDS011;11158;53.404;-1.510;2023-09-18T06:44:12;8.98;;;6.80;;
21987;SDS011;11158;53.404;-1.510;2023-09-18T06:46:56;8.30;;;5.95;;
21987;SDS011;11158;53.404;-1.510;2023-09-18T06:49:41;7.43;;;5.15;;
21987;SDS011;11158;53.404;-1.510;2023-09-18T06:52:25;6.63;;;4.65;;
21987;SDS011;11158;53.404;-1.510;2023-09-18T06:55:10;5.70;;;4.30;;
21987;SDS011;11158;53.404;-1.510;2023-09-18T06:57:54;6.65;;;4.97;;
21987;SDS011;11158;53.404;-1.510;2023-09-18T07:00:38;5.95;;;4.20;;
21987;SDS011;11158;53.404;-1.510;2023-09-18T07:03:23;7.50;;;3.38;;
21987;SDS011;11158;53.404;-1.510;2023-09-18T07:06:07;7.25;;;3.22;;
21987;SDS011;11158;53.404;-1.510;2023-09-18T07:08:51;4.15;;;2.80;;
21987;SDS011;11158;53.404;-1.510;2023-09-18T07:11:37;2.80;;;2.15;;
21987;SDS011;11158;53.404;-1.510;2023-09-18T07:14:21;5.00;;;2.80;;
21987;SDS011;11158;53.404;-1.510;2023-09-18T07:17:04;8.02;;;3.22;;
21987;SDS011;11158;53.404;-1.510;2023-09-18T07:19:48;4.43;;;3.13;;
21987;SDS011;11158;53.404;-1.510;2023-09-18T07:22:32;4.80;;;2.85;;
21987;SDS011;11158;53.404;-1.510;2023-09-18T07:25:17;3.80;;;2.33;;
21987;SDS011;11158;53.404;-1.510;2023-09-18T07:28:01;3.33;;;2.35;;
21987;SDS011;11158;53.404;-1.510;2023-09-18T07:30:46;4.20;;;2.15;;
21987;SDS011;11158;53.404;-1.510;2023-09-18T07:33:31;4.05;;;1.98;;
21987;SDS011;11158;53.404;-1.510;2023-09-18T07:36:15;6.55;;;2.55;;
21987;SDS011;11158;53.404;-1.510;2023-09-18T07:38:59;5.35;;;2.25;;
21987;SDS011;11158;53.404;-1.510;2023-09-18T07:41:43;4.78;;;2.28;;
21987;SDS011;11158;53.404;-1.510;2023-09-18T07:44:28;2.38;;;2.13;;
21987;SDS011;11158;53.404;-1.510;2023-09-18T07:47:12;5.00;;;2.55;;
21987;SDS011;11158;53.404;-1.510;2023-09-18T07:49:56;5.28;;;2.85;;
21987;SDS011;11158;53.404;-1.510;2023-09-18T07:52:40;3.85;;;2.80;;
21987;SDS011;11158;53.404;-1.510;2023-09-18T07:55:24;4.68;;;2.92;;
21987;SDS011;11158;53.404;-1.510;2023-09-18T07:58:09;4.97;;;2.70;;
21987;SDS011;11158;53.404;-1.510;2023-09-18T08:00:55;4.57;;;3.00;;
21987;SDS011;11158;53.404;-1.510;2023-09-18T08:03:40;3.42;;;2.75;;
21987;SDS011;11158;53.404;-1.510;2023-09-18T08:06:24;4.95;;;2.13;;
21987;SDS011;11158;53.404;-1.510;2023-09-18T08:09:09;3.30;;;2.45;;
21987;SDS011;11158;53.404;-1.510;2023-09-18T08:11:57;4.18;;;2.53;;
21987;SDS011;11158;53.404;-1.510;2023-09-18T08:14:42;4.00;;;2.20;;
21987;SDS011;11158;53.404;-1.510;2023-09-18T08:17:26;4.72;;;2.10;;
21987;SDS011;11158;53.404;-1.510;2023-09-18T08:20:10;3.60;;;2.17;;
21987;SDS011;11158;53.404;-1.510;2023-09-18T08:22:57;4.43;;;2.35;;
21987;SDS011;11158;53.404;-1.510;2023-09-18T08:25:45;5.20;;;2.10;;
21987;SDS011;11158;53.404;-1.510;2023-09-18T08:28:30;4.10;;;1.90;;
21987;SDS011;11158;53.404;-1.510;2023-09-18T08:31:15;5.07;;;2.20;;
21987;SDS011;11158;53.404;-1.510;2023-09-18T08:34:00;2.00;;;1.80;;
21987;SDS011;11158;53.404;-1.510;2023-09-18T08:36:44;2.90;;;1.65;;
21987;SDS011;11158;53.404;-1.510;2023-09-18T08:39:29;4.40;;;2.28;;
21987;SDS011;11158;53.404;-1.510;2023-09-18T08:42:16;3.92;;;2.22;;
21987;SDS011;11158;53.404;-1.510;2023-09-18T08:45:02;3.55;;;2.10;;
21987;SDS011;11158;53.404;-1.510;2023-09-18T08:47:54;3.85;;;1.90;;
21987;SDS011;11158;53.404;-1.510;2023-09-18T08:50:39;4.20;;;1.65;;
21987;SDS011;11158;53.404;-1.510;2023-09-18T08:53:24;3.95;;;1.65;;
21987;SDS011;11158;53.404;-1.510;2023-09-18T08:56:09;3.70;;;1.70;;
21987;SDS011;11158;53.404;-1.510;2023-09-18T08:58:56;4.22;;;1.58;;
21987;SDS011;11158;53.404;-1.510;2023-09-18T09:01:40;3.55;;;1.50;;
21987;SDS011;11158;53.404;-1.510;2023-09-18T09:04:24;3.25;;;1.63;;
21987;SDS011;11158;53.404;-1.510;2023-09-18T09:07:10;5.40;;;1.60;;
21987;SDS011;11158;53.404;-1.510;2023-09-18T09:09:54;3.78;;;1.55;;
21987;SDS011;11158;53.404;-1.510;2023-09-18T09:12:48;5.20;;;1.67;;
21987;SDS011;11158;53.404;-1.510;2023-09-18T09:15:45;4.07;;;1.35;;
21987;SDS011;11158;53.404;-1.510;2023-09-18T09:18:31;3.20;;;1.80;;
21987;SDS011;11158;53.404;-1.510;2023-09-18T09:21:16;2.03;;;1.17;;
21987;SDS011;11158;53.404;-1.510;2023-09-18T09:24:00;5.30;;;1.58;;
21987;SDS011;11158;53.404;-1.510;2023-09-18T09:26:56;3.42;;;1.50;;
21987;SDS011;11158;53.404;-1.510;2023-09-18T09:29:42;4.05;;;1.50;;
21987;SDS011;11158;53.404;-1.510;2023-09-18T09:32:41;3.28;;;1.33;;
21987;SDS011;11158;53.404;-1.510;2023-09-18T09:35:32;2.95;;;1.10;;
21987;SDS011;11158;53.404;-1.510;2023-09-18T09:38:20;3.10;;;1.00;;
21987;SDS011;11158;53.404;-1.510;2023-09-18T09:41:05;3.95;;;1.40;;
21987;SDS011;11158;53.404;-1.510;2023-09-18T09:43:50;3.92;;;1.42;;
21987;SDS011;11158;53.404;-1.510;2023-09-18T09:46:35;4.32;;;1.48;;
21987;SDS011;11158;53.404;-1.510;2023-09-18T09:49:19;4.65;;;1.80;;
21987;SDS011;11158;53.404;-1.510;2023-09-18T09:52:04;2.60;;;1.73;;
21987;SDS011;11158;53.404;-1.510;2023-09-18T09:55:17;3.47;;;1.55;;
21987;SDS011;11158;53.404;-1.510;2023-09-18T09:58:07;3.75;;;1.45;;
21987;SDS011;11158;53.404;-1.510;2023-09-18T10:00:52;3.20;;;1.60;;
21987;SDS011;11158;53.404;-1.510;2023-09-18T10:03:43;3.60;;;1.63;;
21987;SDS011;11158;53.404;-1.510;2023-09-18T10:06:30;5.20;;;1.85;;
21987;SDS011;11158;53.404;-1.510;2023-09-18T10:09:17;5.50;;;1.70;;
21987;SDS011;11158;53.404;-1.510;2023-09-18T10:12:04;3.58;;;1.30;;
21987;SDS011;11158;53.404;-1.510;2023-09-18T10:14:54;3.25;;;1.33;;
21987;SDS011;11158;53.404;-1.510;2023-09-18T10:17:42;2.35;;;1.40;;
21987;SDS011;11158;53.404;-1.510;2023-09-18T10:20:30;4.03;;;1.35;;
21987;SDS011;11158;53.404;-1.510;2023-09-18T10:23:21;3.28;;;1.40;;
21987;SDS011;11158;53.404;-1.510;2023-09-18T10:26:19;3.22;;;1.25;;
21987;SDS011;11158;53.404;-1.510;2023-09-18T10:29:17;2.63;;;1.30;;
21987;SDS011;11158;53.404;-1.510;2023-09-18T10:32:03;3.10;;;1.27;;
21987;SDS011;11158;53.404;-1.510;2023-09-18T10:34:48;2.67;;;1.00;;
21987;SDS011;11158;53.404;-1.510;2023-09-18T10:37:33;2.78;;;1.30;;
21987;SDS011;11158;53.404;-1.510;2023-09-18T10:40:20;4.30;;;1.10;;
21987;SDS011;11158;53.404;-1.510;2023-09-18T10:43:05;2.75;;;1.23;;
21987;SDS011;11158;53.404;-1.510;2023-09-18T10:45:53;2.17;;;1.00;;
21987;SDS011;11158;53.404;-1.510;2023-09-18T10:48:38;4.47;;;1.38;;
21987;SDS011;11158;53.404;-1.510;2023-09-18T10:51:23;1.05;;;0.95;;
21987;SDS011;11158;53.404;-1.510;2023-09-18T10:54:09;1.83;;;0.90;;
21987;SDS011;11158;53.404;-1.510;2023-09-18T10:56:54;2.53;;;1.02;;
21987;SDS011;11158;53.404;-1.510;2023-09-18T10:59:54;4.63;;;1.60;;
21987;SDS011;11158;53.404;-1.510;2023-09-18T11:02:42;1.38;;;0.80;;
21987;SDS011;11158;53.404;-1.510;2023-09-18T11:05:28;2.05;;;0.70;;
21987;SDS011;11158;53.404;-1.510;2023-09-18T11:08:24;3.10;;;1.00;;
21987;SDS011;11158;53.404;-1.510;2023-09-18T11:11:13;2.78;;;1.27;;
21987;SDS011;11158;53.404;-1.510;2023-09-18T11:14:03;1.95;;;0.60;;
21987;SDS011;11158;53.404;-1.510;2023-09-18T11:16:54;0.88;;;0.63;;
21987;SDS011;11158;53.404;-1.510;2023-09-18T11:19:42;1.08;;;0.65;;
21987;SDS011;11158;53.404;-1.510;2023-09-18T11:22:28;1.30;;;0.82;;
21987;SDS011;11158;53.404;-1.510;2023-09-18T11:25:34;5.38;;;0.75;;
21987;SDS011;11158;53.404;-1.510;2023-09-18T11:28:23;1.83;;;0.90;;
21987;SDS011;11158;53.404;-1.510;2023-09-18T11:31:09;3.58;;;1.10;;
21987;SDS011;11158;53.404;-1.510;2023-09-18T11:33:55;2.38;;;0.80;;
21987;SDS011;11158;53.404;-1.510;2023-09-18T11:36:39;1.90;;;0.90;;
21987;SDS011;11158;53.404;-1.510;2023-09-18T11:42:21;1.60;;;1.23;;
21987;SDS011;11158;53.404;-1.510;2023-09-18T11:45:16;1.90;;;1.35;;
21987;SDS011;11158;53.404;-1.510;2023-09-18T11:48:00;2.55;;;1.20;;
21987;SDS011;11158;53.404;-1.510;2023-09-18T11:50:45;1.63;;;1.10;;
21987;SDS011;11158;53.404;-1.510;2023-09-18T11:53:33;3.47;;;1.48;;
21987;SDS011;11158;53.404;-1.510;2023-09-18T11:56:20;2.53;;;1.20;;
21987;SDS011;11158;53.404;-1.510;2023-09-18T11:59:05;2.47;;;0.82;;
21987;SDS011;11158;53.404;-1.510;2023-09-18T12:01:54;1.30;;;0.82;;
21987;SDS011;11158;53.404;-1.510;2023-09-18T12:04:45;2.60;;;1.13;;
21987;SDS011;11158;53.404;-1.510;2023-09-18T12:07:31;2.35;;;0.95;;
21987;SDS011;11158;53.404;-1.510;2023-09-18T12:10:16;3.17;;;1.13;;
21987;SDS011;11158;53.404;-1.510;2023-09-18T12:13:06;4.47;;;1.33;;
21987;SDS011;11158;53.404;-1.510;2023-09-18T12:15:59;2.95;;;1.30;;
21987;SDS011;11158;53.404;-1.510;2023-09-18T12:18:46;4.18;;;1.40;;
21987;SDS011;11158;53.404;-1.510;2023-09-18T12:21:39;4.95;;;1.30;;
21987;SDS011;11158;53.404;-1.510;2023-09-18T12:24:25;3.67;;;1.08;;
21987;SDS011;11158;53.404;-1.510;2023-09-18T12:27:09;4.20;;;1.40;;
21987;SDS011;11158;53.404;-1.510;2023-09-18T12:29:54;4.43;;;1.25;;
21987;SDS011;11158;53.404;-1.510;2023-09-18T12:32:39;6.53;;;1.60;;
21987;SDS011;11158;53.404;-1.510;2023-09-18T12:35:23;4.30;;;1.40;;
21987;SDS011;11158;53.404;-1.510;2023-09-18T12:38:13;2.65;;;1.10;;
21987;SDS011;11158;53.404;-1.510;2023-09-18T12:40:59;2.33;;;1.40;;
21987;SDS011;11158;53.404;-1.510;2023-09-18T12:43:51;4.97;;;1.50;;
21987;SDS011;11158;53.404;-1.510;2023-09-18T12:46:37;6.30;;;1.48;;
21987;SDS011;11158;53.404;-1.510;2023-09-18T12:49:24;3.70;;;1.27;;
21987;SDS011;11158;53.404;-1.510;2023-09-18T12:52:21;3.70;;;1.15;;
21987;SDS011;11158;53.404;-1.510;2023-09-18T12:55:06;4.85;;;1.52;;
21987;SDS011;11158;53.404;-1.510;2023-09-18T12:57:53;1.35;;;0.85;;
21987;SDS011;11158;53.404;-1.510;2023-09-18T13:00:43;2.47;;;1.10;;
21987;SDS011;11158;53.404;-1.510;2023-09-18T13:03:32;4.55;;;1.15;;
21987;SDS011;11158;53.404;-1.510;2023-09-18T13:06:17;1.73;;;0.90;;
21987;SDS011;11158;53.404;-1.510;2023-09-18T13:09:16;2.05;;;0.85;;
21987;SDS011;11158;53.404;-1.510;2023-09-18T13:12:01;2.72;;;0.68;;
21987;SDS011;11158;53.404;-1.510;2023-09-18T13:14:58;2.50;;;0.70;;
21987;SDS011;11158;53.404;-1.510;2023-09-18T13:17:44;1.42;;;0.73;;
21987;SDS011;11158;53.404;-1.510;2023-09-18T13:20:30;2.15;;;0.40;;
21987;SDS011;11158;53.404;-1.510;2023-09-18T13:23:15;1.02;;;0.43;;
21987;SDS011;11158;53.404;-1.510;2023-09-18T13:26:01;1.52;;;0.30;;
21987;SDS011;11158;53.404;-1.510;2023-09-18T13:28:47;0.35;;;0.17;;
21987;SDS011;11158;53.404;-1.510;2023-09-18T13:31:32;0.40;;;0.22;;
21987;SDS011;11158;53.404;-1.510;2023-09-18T13:34:16;0.15;;;0.15;;
21987;SDS011;11158;53.404;-1.510;2023-09-18T13:37:02;0.75;;;0.20;;
21987;SDS011;11158;53.404;-1.510;2023-09-18T13:39:48;0.57;;;0.28;;
21987;SDS011;11158;53.404;-1.510;2023-09-18T13:42:32;1.52;;;0.75;;
21987;SDS011;11158;53.404;-1.510;2023-09-18T13:45:20;0.93;;;0.57;;
21987;SDS011;11158;53.404;-1.510;2023-09-18T13:48:05;2.00;;;0.73;;
21987;SDS011;11158;53.404;-1.510;2023-09-18T13:50:50;2.60;;;0.60;;
21987;SDS011;11158;53.404;-1.510;2023-09-18T13:53:35;1.98;;;0.90;;
21987;SDS011;11158;53.404;-1.510;2023-09-18T13:56:20;3.40;;;0.93;;
21987;SDS011;11158;53.404;-1.510;2023-09-18T13:59:05;2.45;;;1.02;;
21987;SDS011;11158;53.404;-1.510;2023-09-18T14:01:49;1.23;;;0.88;;
21987;SDS011;11158;53.404;-1.510;2023-09-18T14:04:36;1.60;;;1.00;;
21987;SDS011;11158;53.404;-1.510;2023-09-18T14:07:21;6.07;;;1.13;;
21987;SDS011;11158;53.404;-1.510;2023-09-18T14:10:07;2.20;;;0.88;;
21987;SDS011;11158;53.404;-1.510;2023-09-18T14:12:56;3.00;;;0.85;;
21987;SDS011;11158;53.404;-1.510;2023-09-18T14:15:41;5.55;;;1.10;;
21987;SDS011;11158;53.404;-1.510;2023-09-18T14:18:25;2.85;;;1.30;;
21987;SDS011;11158;53.404;-1.510;2023-09-18T14:21:11;3.42;;;1.10;;
21987;SDS011;11158;53.404;-1.510;2023-09-18T14:23:56;4.25;;;1.00;;
21987;SDS011;11158;53.404;-1.510;2023-09-18T14:26:40;6.38;;;1.58;;
21987;SDS011;11158;53.404;-1.510;2023-09-18T14:29:24;5.00;;;1.17;;
21987;SDS011;11158;53.404;-1.510;2023-09-18T14:32:09;4.75;;;1.50;;
21987;SDS011;11158;53.404;-1.510;2023-09-18T14:34:53;4.43;;;1.52;;
21987;SDS011;11158;53.404;-1.510;2023-09-18T14:37:37;3.78;;;1.27;;
21987;SDS011;11158;53.404;-1.510;2023-09-18T14:40:21;4.50;;;1.90;;
21987;SDS011;11158;53.404;-1.510;2023-09-18T14:43:06;5.78;;;1.40;;
21987;SDS011;11158;53.404;-1.510;2023-09-18T14:45:51;3.53;;;1.30;;
21987;SDS011;11158;53.404;-1.510;2023-09-18T14:48:36;5.75;;;1.52;;
21987;SDS011;11158;53.404;-1.510;2023-09-18T14:51:21;4.53;;;1.52;;
21987;SDS011;11158;53.404;-1.510;2023-09-18T14:54:05;7.28;;;1.95;;
21987;SDS011;11158;53.404;-1.510;2023-09-18T14:56:51;6.38;;;1.27;;
21987;SDS011;11158;53.404;-1.510;2023-09-18T14:59:36;5.63;;;1.30;;
21987;SDS011;11158;53.404;-1.510;2023-09-18T15:02:22;6.75;;;2.35;;
21987;SDS011;11158;53.404;-1.510;2023-09-18T15:05:07;9.80;;;4.63;;
21987;SDS011;11158;53.404;-1.510;2023-09-18T15:07:56;8.80;;;2.63;;
21987;SDS011;11158;53.404;-1.510;2023-09-18T15:10:40;7.85;;;1.85;;
21987;SDS011;11158;53.404;-1.510;2023-09-18T15:13:26;8.65;;;2.50;;
21987;SDS011;11158;53.404;-1.510;2023-09-18T15:16:11;13.13;;;3.38;;
21987;SDS011;11158;53.404;-1.510;2023-09-18T15:18:56;4.07;;;1.55;;
21987;SDS011;11158;53.404;-1.510;2023-09-18T15:21:46;6.38;;;1.75;;
21987;SDS011;11158;53.404;-1.510;2023-09-18T15:24:30;7.63;;;1.70;;
21987;SDS011;11158;53.404;-1.510;2023-09-18T15:27:14;8.13;;;1.50;;
21987;SDS011;11158;53.404;-1.510;2023-09-18T15:29:58;5.75;;;1.52;;
21987;SDS011;11158;53.404;-1.510;2023-09-18T15:32:45;8.55;;;1.70;;
21987;SDS011;11158;53.404;-1.510;2023-09-18T15:35:34;4.93;;;1.70;;
21987;SDS011;11158;53.404;-1.510;2023-09-18T15:38:20;5.00;;;1.63;;
21987;SDS011;11158;53.404;-1.510;2023-09-18T15:41:05;7.40;;;1.48;;
21987;SDS011;11158;53.404;-1.510;2023-09-18T15:43:49;4.68;;;1.77;;
21987;SDS011;11158;53.404;-1.510;2023-09-18T15:46:33;5.93;;;1.52;;
21987;SDS011;11158;53.404;-1.510;2023-09-18T15:49:18;4.45;;;1.08;;
21987;SDS011;11158;53.404;-1.510;2023-09-18T15:52:02;5.65;;;1.38;;
21987;SDS011;11158;53.404;-1.510;2023-09-18T15:54:47;7.70;;;1.65;;
21987;SDS011;11158;53.404;-1.510;2023-09-18T15:57:31;7.30;;;1.42;;
21987;SDS011;11158;53.404;-1.510;2023-09-18T16:00:19;5.45;;;1.52;;
21987;SDS011;11158;53.404;-1.510;2023-09-18T16:03:04;7.93;;;1.70;;
21987;SDS011;11158;53.404;-1.510;2023-09-18T16:05:48;8.23;;;1.80;;
21987;SDS011;11158;53.404;-1.510;2023-09-18T16:08:35;5.13;;;1.42;;
21987;SDS011;11158;53.404;-1.510;2023-09-18T16:11:20;6.82;;;1.90;;
21987;SDS011;11158;53.404;-1.510;2023-09-18T16:14:04;5.40;;;1.48;;